Time;durP1;ratioP1;P1;durP2;ratioP2;P2;SDS_P1;SDS_P2;PMS_P1;PMS_P2;Temp;Humidity;BMP_temperature;BMP_pressure;BME280_temperature;BME280_humidity;BME280_pressure;Samples;Min_cycle;Max_cycle;Signal;HPM_P1;HPM_P2
2024/03/23 00:01:31;;;;;;;35.05;32.90;;;;;;;;;;4232066;28;20111;-58
2024/03/23 00:03:32;;;;;;;34.42;32.72;;;;;;;;;;4231755;28;20051;-57
2024/03/23 00:05:32;;;;;;;34.83;33.13;;;;;;;;;;4232360;28;20115;-58
2024/03/23 00:07:33;;;;;;;35.28;33.38;;;;;;;;;;4232275;28;20399;-58
2024/03/23 00:09:33;;;;;;;36.60;34.67;;;;;;;;;;4231167;28;20126;-58
2024/03/23 00:11:34;;;;;;;32.10;30.58;;;;;;;;;;4231906;28;20035;-57
2024/03/23 00:13:35;;;;;;;33.10;31.30;;;;;;;;;;4231986;28;20052;-57
2024/03/23 00:15:35;;;;;;;35.83;34.15;;;;;;;;;;4231844;28;20090;-57
2024/03/23 00:17:36;;;;;;;35.88;33.92;;;;;;;;;;4231901;28;20039;-58
2024/03/23 00:19:36;;;;;;;39.30;37.15;;;;;;;;;;4232073;28;20039;-55
2024/03/23 00:21:38;;;;;;;36.55;34.45;;;;;;;;;;4230779;28;20035;-55
2024/03/23 00:23:39;;;;;;;32.60;31.05;;;;;;;;;;4231548;28;20052;-55
2024/03/23 00:25:39;;;;;;;34.95;33.25;;;;;;;;;;4230822;28;20044;-55
2024/03/23 00:27:40;;;;;;;35.75;33.88;;;;;;;;;;4231374;28;20132;-55
2024/03/23 00:29:40;;;;;;;37.85;34.97;;;;;;;;;;4231499;28;20506;-56
2024/03/23 00:31:41;;;;;;;32.25;30.67;;;;;;;;;;4231506;28;20074;-55
2024/03/23 00:33:41;;;;;;;34.90;33.10;;;;;;;;;;4231478;28;20093;-55
2024/03/23 00:35:42;;;;;;;36.35;34.15;;;;;;;;;;4231568;28;20499;-55
2024/03/23 00:37:42;;;;;;;32.70;30.75;;;;;;;;;;4231478;28;20044;-55
2024/03/23 00:39:43;;;;;;;35.58;33.90;;;;;;;;;;4231547;28;20063;-55
2024/03/23 00:41:43;;;;;;;34.20;32.22;;;;;;;;;;4231510;28;20587;-56
2024/03/23 00:43:44;;;;;;;29.77;28.25;;;;;;;;;;4231376;28;20073;-55
2024/03/23 00:45:47;;;;;;;32.53;30.63;;;;;;;;;;4231558;28;20044;-55
2024/03/23 00:47:47;;;;;;;;;;;;;;;;;;4233009;27;20031;-54
2024/03/23 00:49:48;;;;;;;31.83;29.75;;;;;;;;;;4248268;27;20095;-55
2024/03/23 00:51:48;;;;;;;33.33;31.60;;;;;;;;;;4231133;28;20051;-55
2024/03/23 00:53:49;;;;;;;32.10;30.75;;;;;;;;;;4248257;27;20043;-55
2024/03/23 00:55:49;;;;;;;35.53;33.53;;;;;;;;;;4248288;27;20577;-55
2024/03/23 00:57:50;;;;;;;36.53;34.38;;;;;;;;;;4248504;27;20103;-55
2024/03/23 00:59:50;;;;;;;33.90;32.03;;;;;;;;;;4248098;27;20660;-55
2024/03/23 01:01:51;;;;;;;36.97;34.63;;;;;;;;;;4248204;27;20039;-55
2024/03/23 01:03:51;;;;;;;34.63;32.92;;;;;;;;;;4247688;27;20184;-55
2024/03/23 01:05:54;;;;;;;31.92;30.38;;;;;;;;;;4231390;28;20506;-55
2024/03/23 01:07:54;;;;;;;31.65;30.05;;;;;;;;;;4248533;27;20035;-55
2024/03/23 01:09:55;;;;;;;35.08;33.28;;;;;;;;;;4248154;27;20423;-55
2024/03/23 01:11:55;;;;;;;35.85;33.78;;;;;;;;;;4248089;27;20050;-56
2024/03/23 01:13:56;;;;;;;37.15;34.50;;;;;;;;;;4248059;27;20085;-55
2024/03/23 01:15:57;;;;;;;36.45;34.75;;;;;;;;;;4248105;27;20047;-56
2024/03/23 01:17:57;;;;;;;33.67;32.15;;;;;;;;;;4248260;27;20047;-54
2024/03/23 01:19:58;;;;;;;35.38;33.67;;;;;;;;;;4233743;27;20043;-55
2024/03/23 01:21:58;;;;;;;33.13;31.70;;;;;;;;;;4230897;28;20138;-55
2024/03/23 01:23:59;;;;;;;32.50;30.80;;;;;;;;;;4230802;28;20040;-55
2024/03/23 01:25:59;;;;;;;34.67;33.28;;;;;;;;;;4230814;28;20093;-54
2024/03/23 01:28:00;;;;;;;33.38;31.90;;;;;;;;;;4230816;28;20123;-55
2024/03/23 01:30:00;;;;;;;33.38;31.65;;;;;;;;;;4230558;28;20043;-55
2024/03/23 01:32:01;;;;;;;33.03;31.25;;;;;;;;;;4230687;28;20039;-55
2024/03/23 01:34:03;;;;;;;31.00;29.80;;;;;;;;;;4230775;28;20043;-55
2024/03/23 01:36:03;;;;;;;33.38;31.70;;;;;;;;;;4230533;28;20035;-54
2024/03/23 01:38:04;;;;;;;35.20;32.95;;;;;;;;;;4230396;28;20113;-55
2024/03/23 01:40:05;;;;;;;32.83;31.42;;;;;;;;;;4230484;28;20043;-55
2024/03/23 01:42:05;;;;;;;32.28;30.58;;;;;;;;;;4230705;28;20055;-55
2024/03/23 01:44:09;;;;;;;33.20;31.50;;;;;;;;;;4232353;27;20085;-55
2024/03/23 01:46:10;;;;;;;35.72;33.75;;;;;;;;;;4247419;27;20458;-55
2024/03/23 01:48:12;;;;;;;36.95;34.92;;;;;;;;;;4247321;27;20427;-54
2024/03/23 01:50:13;;;;;;;36.35;34.90;;;;;;;;;;4247343;27;20511;-55
2024/03/23 01:52:14;;;;;;;35.47;33.72;;;;;;;;;;4247269;27;20376;-55
2024/03/23 01:54:15;;;;;;;35.83;34.22;;;;;;;;;;4247355;27;20050;-55
2024/03/23 01:56:15;;;;;;;33.10;31.60;;;;;;;;;;4247378;27;20050;-56
2024/03/23 01:58:16;;;;;;;33.83;32.03;;;;;;;;;;4246404;27;20051;-55
2024/03/23 02:00:17;;;;;;;33.15;31.80;;;;;;;;;;4247144;27;20131;-55
2024/03/23 02:02:19;;;;;;;31.88;30.52;;;;;;;;;;4216172;28;20036;-55
2024/03/23 02:04:20;;;;;;;36.55;34.75;;;;;;;;;;4229939;28;20040;-55
2024/03/23 02:06:21;;;;;;;35.63;33.88;;;;;;;;;;4229857;28;20042;-55
2024/03/23 02:08:22;;;;;;;38.03;35.60;;;;;;;;;;4230081;28;20040;-55
2024/03/23 02:10:23;;;;;;;36.58;34.67;;;;;;;;;;4230304;28;20047;-54
2024/03/23 02:12:24;;;;;;;31.92;30.52;;;;;;;;;;4229640;28;20070;-55
2024/03/23 02:14:24;;;;;;;36.65;34.80;;;;;;;;;;4228920;28;20046;-54
2024/03/23 02:16:25;;;;;;;37.70;35.80;;;;;;;;;;4228954;28;20118;-55
2024/03/23 02:18:25;;;;;;;35.85;34.10;;;;;;;;;;4228444;28;20561;-55
2024/03/23 02:20:26;;;;;;;35.55;34.05;;;;;;;;;;4229168;28;20130;-54
2024/03/23 02:22:36;;;;;;;33.72;31.73;;;;;;;;;;4229225;28;20081;-54
2024/03/23 02:24:37;;;;;;;36.38;34.25;;;;;;;;;;4229168;28;20525;-55
2024/03/23 02:26:37;;;;;;;34.97;33.28;;;;;;;;;;4229142;28;20127;-55
2024/03/23 02:28:38;;;;;;;32.42;31.13;;;;;;;;;;4229154;28;20066;-55
2024/03/23 02:30:38;;;;;;;37.75;35.95;;;;;;;;;;4229538;28;20080;-55
2024/03/23 02:32:39;;;;;;;33.50;31.75;;;;;;;;;;4229683;28;20085;-56
2024/03/23 02:34:39;;;;;;;32.72;31.23;;;;;;;;;;4229780;28;20040;-55
2024/03/23 02:36:40;;;;;;;32.92;31.63;;;;;;;;;;4229928;28;20039;-54
2024/03/23 02:38:40;;;;;;;34.05;32.67;;;;;;;;;;4229825;28;20047;-55
2024/03/23 02:40:41;;;;;;;33.22;31.83;;;;;;;;;;4225427;28;20039;-55
2024/03/23 02:42:42;;;;;;;35.22;33.45;;;;;;;;;;4212751;28;20051;-55
2024/03/23 02:44:42;;;;;;;36.65;34.80;;;;;;;;;;4212696;28;20044;-55
2024/03/23 02:46:43;;;;;;;36.53;34.72;;;;;;;;;;4212773;28;20036;-55
2024/03/23 02:48:43;;;;;;;35.60;33.80;;;;;;;;;;4212223;28;20066;-55
2024/03/23 02:50:44;;;;;;;37.10;35.10;;;;;;;;;;4212490;28;20046;-55
2024/03/23 02:52:44;;;;;;;39.75;37.53;;;;;;;;;;4212612;28;20080;-55
2024/03/23 02:54:45;;;;;;;39.13;36.47;;;;;;;;;;4195983;28;20501;-55
2024/03/23 02:56:46;;;;;;;39.78;37.00;;;;;;;;;;4212665;28;20044;-55
2024/03/23 02:58:46;;;;;;;41.50;38.88;;;;;;;;;;4212597;28;20507;-55
2024/03/23 03:00:47;;;;;;;37.10;34.72;;;;;;;;;;4212615;28;20063;-54
2024/03/23 03:02:47;;;;;;;36.97;35.15;;;;;;;;;;4212440;28;20500;-55
2024/03/23 03:04:48;;;;;;;38.92;36.70;;;;;;;;;;4212449;28;20059;-55
2024/03/23 03:06:49;;;;;;;34.47;32.70;;;;;;;;;;4212505;28;20048;-55
2024/03/23 03:08:49;;;;;;;37.90;35.80;;;;;;;;;;4212558;28;20085;-55
2024/03/23 03:10:50;;;;;;;37.45;35.40;;;;;;;;;;4212684;28;20032;-55
2024/03/23 03:12:50;;;;;;;35.13;33.53;;;;;;;;;;4212385;28;20040;-54
2024/03/23 03:14:51;;;;;;;39.08;37.17;;;;;;;;;;4212534;28;20040;-54
2024/03/23 03:16:51;;;;;;;37.20;35.03;;;;;;;;;;4212514;28;20044;-54
2024/03/23 03:18:52;;;;;;;35.10;33.60;;;;;;;;;;4212360;28;20040;-55
2024/03/23 03:20:54;;;;;;;39.15;37.25;;;;;;;;;;4212418;28;20040;-55
2024/03/23 03:22:54;;;;;;;38.37;36.67;;;;;;;;;;4223486;28;20091;-55
2024/03/23 03:24:55;;;;;;;38.38;36.40;;;;;;;;;;4229296;28;20063;-55
2024/03/23 03:26:56;;;;;;;38.33;36.45;;;;;;;;;;4229102;28;20497;-54
2024/03/23 03:28:56;;;;;;;38.55;36.55;;;;;;;;;;4229245;28;20051;-55
2024/03/23 03:30:57;;;;;;;41.08;38.88;;;;;;;;;;4229229;28;20067;-54
2024/03/23 03:32:57;;;;;;;37.47;35.75;;;;;;;;;;4229197;28;20187;-55
2024/03/23 03:34:58;;;;;;;38.00;36.08;;;;;;;;;;4225963;28;20470;-54
2024/03/23 03:36:59;;;;;;;37.75;35.92;;;;;;;;;;4229476;28;20035;-55
2024/03/23 03:39:00;;;;;;;37.45;35.13;;;;;;;;;;4242683;28;20054;-54
2024/03/23 03:41:01;;;;;;;35.90;33.95;;;;;;;;;;4229091;28;20039;-55
2024/03/23 03:43:02;;;;;;;39.35;37.10;;;;;;;;;;4219214;28;20040;-54
2024/03/23 03:45:04;;;;;;;36.13;34.50;;;;;;;;;;4212222;28;20521;-55
2024/03/23 03:47:05;;;;;;;34.92;33.25;;;;;;;;;;4195902;28;20043;-55
2024/03/23 03:49:06;;;;;;;32.28;31.05;;;;;;;;;;4212245;28;20047;-55
2024/03/23 03:51:06;;;;;;;35.60;34.10;;;;;;;;;;4212356;28;20583;-55
2024/03/23 03:53:07;;;;;;;31.88;30.60;;;;;;;;;;4224549;28;20082;-55
2024/03/23 03:55:12;;;;;;;34.05;32.95;;;;;;;;;;4229036;28;20054;-55
2024/03/23 03:57:13;;;;;;;35.25;33.65;;;;;;;;;;4229120;28;20054;-55
2024/03/23 03:59:15;;;;;;;35.83;33.78;;;;;;;;;;4214225;28;20047;-55
2024/03/23 04:01:15;;;;;;;38.17;36.22;;;;;;;;;;4197414;28;20045;-55
2024/03/23 04:03:16;;;;;;;35.92;34.38;;;;;;;;;;4215080;28;20052;-55
2024/03/23 04:05:16;;;;;;;39.53;37.63;;;;;;;;;;4215345;28;20036;-55
2024/03/23 04:07:18;;;;;;;37.22;35.42;;;;;;;;;;4216827;28;20049;-55
2024/03/23 04:09:18;;;;;;;34.78;33.35;;;;;;;;;;4232116;28;20054;-55
2024/03/23 04:11:19;;;;;;;34.15;32.72;;;;;;;;;;4232252;28;20067;-56
2024/03/23 04:13:19;;;;;;;34.05;32.55;;;;;;;;;;4232014;28;20494;-54
2024/03/23 04:15:20;;;;;;;36.70;35.15;;;;;;;;;;4232045;28;20473;-55
2024/03/23 04:17:21;;;;;;;38.63;36.90;;;;;;;;;;4232105;28;20036;-55
2024/03/23 04:19:21;;;;;;;35.50;33.75;;;;;;;;;;4231800;28;20039;-55
2024/03/23 04:21:22;;;;;;;35.25;33.88;;;;;;;;;;4232106;28;20043;-55
2024/03/23 04:23:23;;;;;;;33.50;32.20;;;;;;;;;;4231707;28;20044;-54
2024/03/23 04:25:24;;;;;;;39.47;37.58;;;;;;;;;;4231748;28;20046;-54
2024/03/23 04:27:24;;;;;;;37.60;35.53;;;;;;;;;;4231812;28;20043;-55
2024/03/23 04:29:26;;;;;;;38.75;36.97;;;;;;;;;;4231486;28;20044;-54
2024/03/23 04:31:27;;;;;;;38.15;36.25;;;;;;;;;;4231620;28;20085;-54
2024/03/23 04:33:27;;;;;;;35.75;34.33;;;;;;;;;;4238343;27;20043;-55
2024/03/23 04:35:28;;;;;;;37.00;35.15;;;;;;;;;;4248689;27;20043;-54
2024/03/23 04:37:28;;;;;;;36.15;34.15;;;;;;;;;;4248497;27;20104;-55
2024/03/23 04:39:29;;;;;;;39.90;37.78;;;;;;;;;;4248783;27;20047;-54
2024/03/23 04:41:30;;;;;;;36.88;35.22;;;;;;;;;;4248485;27;20172;-55
2024/03/23 04:43:30;;;;;;;36.25;34.65;;;;;;;;;;4248431;27;20464;-54
2024/03/23 04:45:31;;;;;;;38.90;37.03;;;;;;;;;;4248671;27;20122;-55
2024/03/23 04:47:32;;;;;;;36.90;35.35;;;;;;;;;;4248394;27;20043;-55
2024/03/23 04:49:32;;;;;;;35.28;33.70;;;;;;;;;;4248241;27;20096;-54
2024/03/23 04:51:39;;;;;;;37.33;35.63;;;;;;;;;;4248339;27;20047;-54
2024/03/23 04:53:40;;;;;;;36.10;34.53;;;;;;;;;;4248348;27;20039;-55
2024/03/23 04:55:40;;;;;;;37.25;35.42;;;;;;;;;;4248379;27;20054;-55
2024/03/23 04:57:41;;;;;;;33.55;32.05;;;;;;;;;;4248392;27;20062;-55
2024/03/23 04:59:42;;;;;;;38.22;36.05;;;;;;;;;;4248306;27;20039;-55
2024/03/23 05:01:42;;;;;;;38.05;35.97;;;;;;;;;;4248463;27;20078;-57
2024/03/23 05:03:43;;;;;;;35.05;33.67;;;;;;;;;;4244527;27;20150;-57
2024/03/23 05:05:43;;;;;;;36.17;34.67;;;;;;;;;;4231121;28;20380;-57
2024/03/23 05:07:46;;;;;;;34.67;33.30;;;;;;;;;;4231484;28;20050;-58
2024/03/23 05:09:46;;;;;;;35.95;34.28;;;;;;;;;;4231159;28;20443;-56
2024/03/23 05:11:47;;;;;;;37.20;35.72;;;;;;;;;;4230666;28;20067;-58
2024/03/23 05:13:48;;;;;;;37.45;35.85;;;;;;;;;;4230964;28;20130;-58
2024/03/23 05:15:54;;;;;;;36.90;35.47;;;;;;;;;;4230643;28;20052;-57
2024/03/23 05:17:55;;;;;;;36.88;35.33;;;;;;;;;;4231129;28;20051;-58
2024/03/23 05:19:57;;;;;;;39.35;37.60;;;;;;;;;;4231037;28;20036;-58
2024/03/23 05:21:57;;;;;;;34.92;33.42;;;;;;;;;;4224369;28;20044;-58
2024/03/23 05:23:58;;;;;;;37.33;35.67;;;;;;;;;;4222137;28;20500;-58
2024/03/23 05:25:59;;;;;;;35.75;34.13;;;;;;;;;;4201717;28;20232;-57
2024/03/23 05:27:59;;;;;;;36.92;35.10;;;;;;;;;;4230823;28;20051;-57
2024/03/23 05:30:00;;;;;;;41.53;37.75;;;;;;;;;;4239751;27;20446;-57
2024/03/23 05:32:01;;;;;;;37.83;34.67;;;;;;;;;;4247828;27;20087;-57
2024/03/23 05:34:01;;;;;;;39.30;36.35;;;;;;;;;;4247746;27;20046;-57
2024/03/23 05:36:03;;;;;;;36.45;34.85;;;;;;;;;;4247928;27;20043;-57
2024/03/23 05:38:04;;;;;;;40.83;35.63;;;;;;;;;;4247662;27;20043;-57
2024/03/23 05:40:05;;;;;;;40.05;37.30;;;;;;;;;;4247635;27;20519;-57
2024/03/23 05:42:05;;;;;;;37.40;35.50;;;;;;;;;;4247598;27;20050;-57
2024/03/23 05:44:06;;;;;;;35.63;33.58;;;;;;;;;;4235256;27;20549;-57
2024/03/23 05:46:10;;;;;;;38.20;36.13;;;;;;;;;;4230602;28;20134;-57
2024/03/23 05:48:10;;;;;;;34.55;33.15;;;;;;;;;;4230577;28;20043;-58
2024/03/23 05:50:12;;;;;;;35.78;33.67;;;;;;;;;;4230365;28;20088;-56
2024/03/23 05:52:13;;;;;;;39.70;37.45;;;;;;;;;;4230443;28;20036;-57
2024/03/23 05:54:14;;;;;;;37.17;35.47;;;;;;;;;;4230446;28;20046;-58
2024/03/23 05:56:19;;;;;;;35.08;33.13;;;;;;;;;;4230449;28;20047;-57
2024/03/23 05:58:20;;;;;;;34.63;32.92;;;;;;;;;;4230329;28;20473;-57
2024/03/23 06:00:20;;;;;;;36.83;34.80;;;;;;;;;;4230229;28;20051;-57
2024/03/23 06:02:21;;;;;;;34.28;32.63;;;;;;;;;;4230203;28;20508;-57
2024/03/23 06:04:22;;;;;;;36.53;34.88;;;;;;;;;;4229903;28;20096;-57
2024/03/23 06:06:23;;;;;;;42.15;39.85;;;;;;;;;;4230122;28;20040;-57
2024/03/23 06:08:24;;;;;;;38.20;36.00;;;;;;;;;;4230026;28;20035;-56
2024/03/23 06:10:24;;;;;;;37.83;35.70;;;;;;;;;;4229952;28;20043;-56
2024/03/23 06:12:25;;;;;;;39.47;37.53;;;;;;;;;;4223744;28;20406;-56
2024/03/23 06:14:26;;;;;;;37.67;35.75;;;;;;;;;;4218784;28;20070;-57
2024/03/23 06:16:27;;;;;;;39.40;37.50;;;;;;;;;;4228165;28;20518;-58
2024/03/23 06:18:28;;;;;;;38.90;36.33;;;;;;;;;;4229330;28;20047;-57
2024/03/23 06:20:28;;;;;;;40.25;37.63;;;;;;;;;;4227773;28;21632;-58
2024/03/23 06:22:29;;;;;;;36.95;34.83;;;;;;;;;;4208206;28;20451;-56
2024/03/23 06:24:30;;;;;;;36.55;34.63;;;;;;;;;;4228783;28;20044;-58
2024/03/23 06:26:30;;;;;;;35.38;33.72;;;;;;;;;;4218194;28;20047;-58
2024/03/23 06:28:31;;;;;;;37.85;35.90;;;;;;;;;;4220414;28;20047;-58
2024/03/23 06:30:32;;;;;;;35.00;33.30;;;;;;;;;;4223591;28;20540;-57
2024/03/23 06:32:32;;;;;;;36.47;34.85;;;;;;;;;;4229582;28;20487;-58
2024/03/23 06:34:33;;;;;;;34.50;33.20;;;;;;;;;;4229736;28;20047;-57
2024/03/23 06:36:34;;;;;;;33.42;31.85;;;;;;;;;;4229631;28;20042;-58
2024/03/23 06:38:35;;;;;;;32.55;30.95;;;;;;;;;;4229856;28;20050;-58
2024/03/23 06:40:36;;;;;;;36.22;34.70;;;;;;;;;;4225520;28;20055;-58
2024/03/23 06:42:36;;;;;;;36.42;34.58;;;;;;;;;;4215225;28;20449;-58
2024/03/23 06:44:37;;;;;;;36.28;34.58;;;;;;;;;;4225122;28;20046;-60
2024/03/23 06:46:37;;;;;;;38.25;36.22;;;;;;;;;;4222931;28;20071;-66
2024/03/23 06:48:38;;;;;;;34.67;33.10;;;;;;;;;;4226997;28;20036;-68
2024/03/23 06:50:39;;;;;;;33.55;32.15;;;;;;;;;;4228607;28;20078;-68
2024/03/23 06:52:39;;;;;;;33.85;32.38;;;;;;;;;;4229268;28;20045;-68
2024/03/23 06:54:40;;;;;;;35.70;33.95;;;;;;;;;;4224453;28;20544;-64
2024/03/23 06:56:40;;;;;;;33.75;32.40;;;;;;;;;;4223416;28;20074;-64
2024/03/23 06:58:41;;;;;;;34.50;32.70;;;;;;;;;;4226349;28;20118;-64
2024/03/23 07:00:41;;;;;;;34.10;32.28;;;;;;;;;;4203369;28;20058;-64
2024/03/23 07:02:44;;;;;;;34.42;32.83;;;;;;;;;;4222733;28;20122;-64
2024/03/23 07:04:44;;;;;;;37.20;35.33;;;;;;;;;;4226747;28;20051;-64
2024/03/23 07:06:45;;;;;;;32.80;31.38;;;;;;;;;;4226783;28;20038;-64
2024/03/23 07:08:46;;;;;;;33.33;31.65;;;;;;;;;;4226005;28;20044;-65
2024/03/23 07:10:46;;;;;;;31.92;30.52;;;;;;;;;;4227664;28;20039;-62
2024/03/23 07:12:47;;;;;;;33.55;31.90;;;;;;;;;;4224535;28;20040;-64
2024/03/23 07:14:47;;;;;;;32.45;31.15;;;;;;;;;;4220027;28;20480;-64
2024/03/23 07:16:49;;;;;;;34.45;32.95;;;;;;;;;;4219938;28;20082;-64
2024/03/23 07:18:50;;;;;;;31.88;30.42;;;;;;;;;;4226901;28;20044;-63
2024/03/23 07:20:54;;;;;;;29.10;27.75;;;;;;;;;;4227427;28;20475;-64
2024/03/23 07:22:54;;;;;;;29.58;28.38;;;;;;;;;;4226825;28;20043;-57
2024/03/23 07:24:55;;;;;;;32.28;31.00;;;;;;;;;;4225401;28;20036;-57
2024/03/23 07:26:57;;;;;;;29.85;28.70;;;;;;;;;;4228798;28;20035;-57
2024/03/23 07:28:58;;;;;;;29.60;28.50;;;;;;;;;;4224610;28;20137;-58
2024/03/23 07:31:04;;;;;;;27.67;26.58;;;;;;;;;;4222144;28;20047;-57
2024/03/23 07:33:05;;;;;;;28.50;27.30;;;;;;;;;;4222211;28;20039;-64
2024/03/23 07:35:05;;;;;;;24.55;23.63;;;;;;;;;;4223752;28;20140;-65
2024/03/23 07:37:06;;;;;;;22.75;21.85;;;;;;;;;;4212694;28;20040;-65
2024/03/23 07:39:07;;;;;;;22.95;21.92;;;;;;;;;;4225057;28;20044;-65
2024/03/23 07:41:09;;;;;;;21.40;20.60;;;;;;;;;;4227590;28;20039;-65
2024/03/23 07:43:10;;;;;;;19.63;18.95;;;;;;;;;;4213584;28;20485;-65
2024/03/23 07:45:11;;;;;;;20.38;19.67;;;;;;;;;;4224292;28;20052;-65
2024/03/23 07:47:12;;;;;;;18.65;18.05;;;;;;;;;;4228508;28;20031;-64
2024/03/23 07:49:13;;;;;;;21.85;20.98;;;;;;;;;;4227204;28;20123;-65
2024/03/23 07:51:17;;;;;;;24.77;23.63;;;;;;;;;;4223297;28;20122;-64
2024/03/23 07:53:18;;;;;;;26.98;25.80;;;;;;;;;;4224930;28;20094;-65
2024/03/23 07:55:18;;;;;;;28.20;27.02;;;;;;;;;;4221985;28;20426;-64
2024/03/23 07:57:19;;;;;;;26.73;25.80;;;;;;;;;;4227277;28;20131;-65
2024/03/23 07:59:20;;;;;;;29.55;28.30;;;;;;;;;;4225255;28;20040;-64
2024/03/23 08:01:20;;;;;;;27.80;26.45;;;;;;;;;;4232726;27;20036;-64
2024/03/23 08:03:21;;;;;;;27.33;26.23;;;;;;;;;;4219409;28;20139;-65
2024/03/23 08:05:21;;;;;;;24.48;23.50;;;;;;;;;;4220329;28;20071;-63
2024/03/23 08:07:22;;;;;;;20.63;19.92;;;;;;;;;;4223211;28;20044;-64
2024/03/23 08:09:23;;;;;;;21.75;20.80;;;;;;;;;;4221973;28;20058;-64
2024/03/23 08:11:23;;;;;;;23.25;22.17;;;;;;;;;;4223475;28;20067;-65
2024/03/23 08:13:24;;;;;;;20.95;19.92;;;;;;;;;;4219527;28;20077;-64
2024/03/23 08:15:24;;;;;;;19.98;18.75;;;;;;;;;;4219097;28;20542;-64
2024/03/23 08:17:25;;;;;;;19.20;18.27;;;;;;;;;;4224546;28;20431;-64
2024/03/23 08:19:25;;;;;;;19.00;18.20;;;;;;;;;;4226251;28;20036;-64
2024/03/23 08:21:26;;;;;;;19.50;18.42;;;;;;;;;;4213861;28;20109;-64
2024/03/23 08:23:27;;;;;;;17.75;16.73;;;;;;;;;;4225174;28;20118;-65
2024/03/23 08:25:30;;;;;;;17.88;16.98;;;;;;;;;;4220020;28;20044;-65
2024/03/23 08:27:31;;;;;;;12.07;11.45;;;;;;;;;;4231618;28;20477;-64
2024/03/23 08:29:31;;;;;;;13.52;12.93;;;;;;;;;;4223970;27;20032;-65
2024/03/23 08:31:32;;;;;;;13.48;12.68;;;;;;;;;;4226486;28;20051;-69
2024/03/23 08:33:32;;;;;;;12.45;11.88;;;;;;;;;;4231478;28;20057;-68
2024/03/23 08:35:34;;;;;;;11.10;10.70;;;;;;;;;;4225293;28;20127;-68
2024/03/23 08:37:35;;;;;;;12.13;11.52;;;;;;;;;;4220877;28;20039;-68
2024/03/23 08:39:35;;;;;;;10.05;9.65;;;;;;;;;;4221893;28;20055;-68
2024/03/23 08:41:36;;;;;;;15.07;14.38;;;;;;;;;;4214561;28;20102;-59
2024/03/23 08:43:40;;;;;;;15.18;14.15;;;;;;;;;;4223049;28;20079;-60
2024/03/23 08:45:40;;;;;;;15.27;14.32;;;;;;;;;;4224437;28;20036;-59
2024/03/23 08:47:41;;;;;;;18.23;17.02;;;;;;;;;;4227718;28;20039;-58
2024/03/23 08:49:42;;;;;;;17.88;17.10;;;;;;;;;;4227425;28;20040;-59
2024/03/23 08:51:45;;;;;;;17.45;16.50;;;;;;;;;;4231281;28;20040;-59
2024/03/23 08:53:46;;;;;;;18.05;17.35;;;;;;;;;;4231333;28;20089;-68
2024/03/23 08:55:52;;;;;;;18.55;17.65;;;;;;;;;;4231214;28;20047;-69
2024/03/23 08:57:53;;;;;;;19.17;18.27;;;;;;;;;;4231291;28;20441;-69
2024/03/23 08:59:53;;;;;;;17.00;16.20;;;;;;;;;;4230968;28;20053;-69
2024/03/23 09:01:54;;;;;;;20.60;19.40;;;;;;;;;;4231229;28;20130;-69
2024/03/23 09:03:55;;;;;;;19.00;18.10;;;;;;;;;;4230566;28;20089;-69
2024/03/23 09:05:58;;;;;;;18.90;18.00;;;;;;;;;;4230856;28;20044;-69
2024/03/23 09:07:58;;;;;;;16.25;15.38;;;;;;;;;;4231162;28;20036;-69
2024/03/23 09:09:59;;;;;;;13.05;12.32;;;;;;;;;;4231009;28;20131;-68
2024/03/23 09:11:59;;;;;;;13.45;12.48;;;;;;;;;;4230898;28;20040;-69
2024/03/23 09:14:00;;;;;;;12.45;11.85;;;;;;;;;;4231081;28;20047;-69
2024/03/23 09:16:01;;;;;;;15.75;14.63;;;;;;;;;;4231093;28;20039;-69
2024/03/23 09:18:02;;;;;;;14.75;14.07;;;;;;;;;;4230901;28;20062;-67
2024/03/23 09:20:04;;;;;;;16.80;15.95;;;;;;;;;;4231185;28;20050;-69
2024/03/23 09:22:04;;;;;;;16.40;15.88;;;;;;;;;;4230900;28;20491;-68
2024/03/23 09:24:06;;;;;;;18.63;17.42;;;;;;;;;;4230747;28;20047;-68
2024/03/23 09:26:07;;;;;;;15.65;14.95;;;;;;;;;;4217135;28;20036;-69
2024/03/23 09:28:11;;;;;;;14.88;14.07;;;;;;;;;;4213926;28;20055;-68
2024/03/23 09:30:12;;;;;;;12.90;12.27;;;;;;;;;;4213656;28;20040;-69
2024/03/23 09:32:12;;;;;;;13.00;12.50;;;;;;;;;;4214152;28;20596;-69
2024/03/23 09:34:13;;;;;;;13.98;13.38;;;;;;;;;;4213808;28;20131;-68
2024/03/23 09:36:13;;;;;;;14.05;13.13;;;;;;;;;;4213781;28;20044;-69
2024/03/23 09:38:14;;;;;;;13.70;12.95;;;;;;;;;;4213666;28;20044;-68
2024/03/23 09:40:15;;;;;;;13.68;13.00;;;;;;;;;;4213936;28;20036;-69
2024/03/23 09:42:16;;;;;;;13.60;12.88;;;;;;;;;;4213776;28;20051;-68
2024/03/23 09:44:16;;;;;;;13.30;12.55;;;;;;;;;;4213681;28;20499;-69
2024/03/23 09:46:17;;;;;;;13.48;12.77;;;;;;;;;;4227969;28;20470;-68
2024/03/23 09:48:18;;;;;;;18.30;16.75;;;;;;;;;;4230461;28;20044;-68
2024/03/23 09:50:18;;;;;;;15.98;15.30;;;;;;;;;;4230460;28;20035;-68
2024/03/23 09:52:19;;;;;;;12.55;12.00;;;;;;;;;;4230388;28;20236;-68
2024/03/23 09:54:20;;;;;;;11.65;11.00;;;;;;;;;;4230311;28;20035;-69
2024/03/23 09:56:21;;;;;;;10.15;9.40;;;;;;;;;;4230336;28;20413;-69
2024/03/23 09:58:23;;;;;;;9.55;9.00;;;;;;;;;;4230258;28;20077;-68
2024/03/23 10:00:23;;;;;;;9.60;9.10;;;;;;;;;;4230280;28;20473;-68
2024/03/23 10:02:25;;;;;;;10.48;9.90;;;;;;;;;;4230324;28;20071;-60
2024/03/23 10:04:38;;;;;;;10.03;9.70;;;;;;;;;;4229943;28;20055;-60
2024/03/23 10:06:39;;;;;;;11.32;10.85;;;;;;;;;;4230187;28;20047;-59
2024/03/23 10:08:39;;;;;;;10.32;10.02;;;;;;;;;;4230149;28;20518;-59
2024/03/23 10:10:40;;;;;;;10.90;10.40;;;;;;;;;;4229905;28;20040;-60
2024/03/23 10:12:47;;;;;;;8.82;8.63;;;;;;;;;;4230171;28;20040;-59
2024/03/23 10:14:47;;;;;;;10.30;9.88;;;;;;;;;;4230182;28;20568;-60
2024/03/23 10:16:48;;;;;;;11.90;11.15;;;;;;;;;;4229849;28;20051;-60
2024/03/23 10:18:49;;;;;;;9.50;9.10;;;;;;;;;;4229837;28;20117;-59
2024/03/23 10:21:05;;;;;;;9.38;9.07;;;;;;;;;;4229484;28;20040;-60
2024/03/23 10:23:15;;;;;;;10.27;9.68;;;;;;;;;;4229041;28;20060;-60
2024/03/23 10:25:16;;;;;;;11.65;11.15;;;;;;;;;;4216440;28;20036;-60
2024/03/23 10:27:18;;;;;;;10.32;9.82;;;;;;;;;;4212630;28;20462;-60
2024/03/23 10:29:18;;;;;;;;;;;;;;;;;;4229967;28;20404;-60
2024/03/23 10:31:20;;;;;;;11.77;11.18;;;;;;;;;;4229305;28;19952;-60
2024/03/23 10:33:21;;;;;;;14.70;13.80;;;;;;;;;;4229174;28;20047;-60
2024/03/23 10:35:22;;;;;;;11.43;10.68;;;;;;;;;;4222793;28;20044;-61
2024/03/23 10:37:22;;;;;;;11.57;10.88;;;;;;;;;;4228458;28;20559;-59
2024/03/23 10:39:23;;;;;;;12.18;11.38;;;;;;;;;;4229564;28;20487;-59
2024/03/23 10:41:31;;;;;;;10.77;10.38;;;;;;;;;;4227940;28;20040;-60
2024/03/23 10:43:32;;;;;;;9.98;9.30;;;;;;;;;;4229394;28;20039;-60
2024/03/23 10:45:33;;;;;;;9.25;8.88;;;;;;;;;;4229342;28;20035;-60
2024/03/23 10:47:35;;;;;;;7.85;7.55;;;;;;;;;;4218808;28;20040;-59
2024/03/23 10:49:36;;;;;;;7.72;7.40;;;;;;;;;;4223537;28;20043;-59
2024/03/23 10:51:37;;;;;;;7.32;7.22;;;;;;;;;;4220964;28;20119;-60
2024/03/23 10:53:38;;;;;;;8.02;7.72;;;;;;;;;;4229164;28;20047;-59
2024/03/23 10:55:39;;;;;;;6.63;6.15;;;;;;;;;;4228904;28;20506;-61
2024/03/23 10:57:42;;;;;;;6.38;6.07;;;;;;;;;;4229626;28;20040;-59
2024/03/23 10:59:44;;;;;;;6.50;6.35;;;;;;;;;;4228352;28;20044;-59
2024/03/23 11:01:54;;;;;;;5.88;5.70;;;;;;;;;;4229182;28;20039;-60
2024/03/23 11:03:54;;;;;;;6.78;6.38;;;;;;;;;;4229067;28;20048;-60
2024/03/23 11:05:56;;;;;;;6.88;6.75;;;;;;;;;;4228947;28;20051;-60
2024/03/23 11:07:56;;;;;;;6.93;6.75;;;;;;;;;;4229013;28;20040;-60
2024/03/23 11:09:57;;;;;;;6.15;5.95;;;;;;;;;;4228887;28;20086;-60
2024/03/23 11:11:58;;;;;;;4.50;4.28;;;;;;;;;;4229188;28;20043;-60
2024/03/23 11:13:59;;;;;;;3.70;3.60;;;;;;;;;;4228753;28;20442;-69
2024/03/23 11:16:12;;;;;;;3.85;3.67;;;;;;;;;;4227915;28;20036;-68
2024/03/23 11:18:19;;;;;;;4.07;3.83;;;;;;;;;;4218878;28;20388;-69
2024/03/23 11:20:30;;;;;;;5.15;4.95;;;;;;;;;;4213241;28;20036;-69
2024/03/23 11:22:37;;;;;;;4.55;4.35;;;;;;;;;;4224895;28;20462;-60
2024/03/23 11:24:38;;;;;;;3.65;3.55;;;;;;;;;;4224807;28;20047;-60
2024/03/23 11:26:39;;;;;;;3.53;3.42;;;;;;;;;;4229008;28;20052;-60
2024/03/23 11:28:39;;;;;;;3.83;3.72;;;;;;;;;;4229080;28;20032;-61
2024/03/23 11:30:40;;;;;;;2.85;2.65;;;;;;;;;;4229073;28;20083;-60
2024/03/23 11:32:41;;;;;;;2.85;2.72;;;;;;;;;;4228816;28;20069;-59
2024/03/23 11:34:41;;;;;;;3.10;3.00;;;;;;;;;;4228821;28;20507;-59
2024/03/23 11:36:42;;;;;;;3.72;3.53;;;;;;;;;;4229155;28;20110;-59
2024/03/23 11:38:43;;;;;;;3.55;3.35;;;;;;;;;;4223001;28;20044;-60
2024/03/23 11:40:45;;;;;;;4.90;4.75;;;;;;;;;;4225359;28;20521;-61
2024/03/23 11:42:45;;;;;;;3.20;3.15;;;;;;;;;;4225649;28;20048;-60
2024/03/23 11:44:47;;;;;;;3.50;3.40;;;;;;;;;;4218674;28;20077;-59
2024/03/23 11:46:48;;;;;;;3.65;3.55;;;;;;;;;;4224424;28;20055;-60
2024/03/23 11:48:51;;;;;;;3.65;3.50;;;;;;;;;;4223894;28;20048;-60